createdAt,value
2023-01-13T00:01:51.996Z,6.86
2023-01-13T00:04:17.920Z,6.85
2023-01-13T00:06:43.816Z,6.88
2023-01-13T00:09:09.887Z,6.93
2023-01-13T00:11:35.824Z,6.97
2023-01-13T00:14:01.850Z,7.00
2023-01-13T00:16:27.767Z,7.02
2023-01-13T00:18:53.780Z,7.02
2023-01-13T00:21:23.466Z,7.02
2023-01-13T00:23:51.414Z,7.01
2023-01-13T00:26:19.977Z,7.00
2023-01-13T00:28:45.949Z,7.00
2023-01-13T00:31:17.590Z,6.97
2023-01-13T00:33:44.228Z,6.97
2023-01-13T00:36:12.915Z,6.95
2023-01-13T00:38:39.886Z,6.91
2023-01-13T00:41:08.766Z,6.88
2023-01-13T00:43:36.494Z,6.85
2023-01-13T00:46:04.141Z,6.79
2023-01-13T00:48:31.906Z,6.72
2023-01-13T00:50:59.175Z,6.67
2023-01-13T00:53:26.497Z,6.63
2023-01-13T00:56:00.289Z,6.62
2023-01-13T00:58:27.248Z,6.63
2023-01-13T01:00:53.305Z,6.67
2023-01-13T01:03:19.404Z,6.69
2023-01-13T01:05:45.318Z,6.69
2023-01-13T01:08:11.218Z,6.71
2023-01-13T01:10:37.166Z,6.71
2023-01-13T01:13:03.124Z,6.70
2023-01-13T01:15:29.029Z,6.65
2023-01-13T01:17:54.954Z,6.59
2023-01-13T01:20:21.001Z,6.55
2023-01-13T01:22:46.895Z,6.52
2023-01-13T01:25:13.013Z,6.50
2023-01-13T01:27:38.895Z,6.49
2023-01-13T01:30:05.454Z,6.47
2023-01-13T01:32:34.077Z,6.43
2023-01-13T01:35:00.037Z,6.40
2023-01-13T01:37:25.981Z,6.37
2023-01-13T01:39:51.957Z,6.33
2023-01-13T01:42:36.953Z,6.30
2023-01-13T01:45:30.575Z,6.23
2023-01-13T01:48:02.235Z,6.19
2023-01-13T01:50:29.473Z,6.15
2023-01-13T01:53:13.291Z,6.16
2023-01-13T01:55:39.692Z,6.13
2023-01-13T01:58:22.649Z,6.15
2023-01-13T02:00:48.602Z,6.20
2023-01-13T02:03:16.523Z,6.21
2023-01-13T02:05:42.585Z,6.14
2023-01-13T02:08:12.246Z,6.09
2023-01-13T02:10:40.645Z,6.08
2023-01-13T02:13:11.618Z,6.05
2023-01-13T02:15:41.170Z,6.03
2023-01-13T02:18:36.614Z,6.05
2023-01-13T02:21:16.409Z,6.07
2023-01-13T02:24:13.250Z,6.03
2023-01-13T02:27:07.932Z,5.96
2023-01-13T02:30:11.175Z,5.90
2023-01-13T02:32:51.196Z,5.80
2023-01-13T02:35:39.371Z,5.80
2023-01-13T02:38:08.049Z,5.89
2023-01-13T02:40:45.028Z,5.92
2023-01-13T02:43:41.281Z,5.92
2023-01-13T02:46:09.537Z,5.99
2023-01-13T02:48:38.111Z,6.01
2023-01-13T02:51:09.058Z,6.04
2023-01-13T02:53:50.031Z,6.06
2023-01-13T02:56:17.382Z,6.10
2023-01-13T02:58:46.445Z,6.14
2023-01-13T03:01:12.518Z,6.18
2023-01-13T03:03:38.572Z,6.14
2023-01-13T03:06:25.955Z,6.13
2023-01-13T03:09:00.413Z,6.16
2023-01-13T03:11:32.812Z,6.22
2023-01-13T03:13:58.719Z,6.26
2023-01-13T03:16:54.615Z,6.25
2023-01-13T03:19:33.500Z,6.29
2023-01-13T03:22:17.614Z,6.33
2023-01-13T03:24:46.611Z,6.37
2023-01-13T03:27:26.613Z,6.39
2023-01-13T03:30:03.158Z,6.42
2023-01-13T03:32:34.828Z,6.42
2023-01-13T03:35:15.455Z,6.42
2023-01-13T03:37:46.364Z,6.42
2023-01-13T03:40:18.358Z,6.41
2023-01-13T03:43:08.857Z,6.40
2023-01-13T03:45:38.396Z,6.39
2023-01-13T03:48:10.616Z,6.37
2023-01-13T03:50:48.183Z,6.33
2023-01-13T03:53:21.423Z,6.28
2023-01-13T03:55:51.806Z,6.22
2023-01-13T03:58:41.470Z,6.18
2023-01-13T04:01:59.012Z,6.18
2023-01-13T04:04:36.365Z,6.20
2023-01-13T04:07:27.127Z,6.23
2023-01-13T04:10:00.216Z,6.20
2023-01-13T04:13:07.880Z,6.13
2023-01-13T04:15:40.576Z,6.13
2023-01-13T04:18:11.190Z,6.09
2023-01-13T04:20:39.319Z,6.08
2023-01-13T04:23:06.294Z,6.09
2023-01-13T04:25:33.341Z,6.12
2023-01-13T04:27:59.358Z,6.16
2023-01-13T04:30:25.312Z,6.20
2023-01-13T04:32:51.300Z,6.23
2023-01-13T04:35:17.286Z,6.24
2023-01-13T04:37:43.315Z,6.24
2023-01-13T04:40:09.924Z,6.26
2023-01-13T04:42:35.925Z,6.26
2023-01-13T04:45:01.979Z,6.23
2023-01-13T04:47:27.921Z,6.21
2023-01-13T04:49:53.889Z,6.22
2023-01-13T04:52:20.041Z,6.24
2023-01-13T04:54:45.966Z,6.23
2023-01-13T04:57:11.930Z,6.20
2023-01-13T04:59:38.021Z,6.18
2023-01-13T05:02:03.991Z,6.18
2023-01-13T05:04:30.274Z,6.19
2023-01-13T05:06:56.371Z,6.18
2023-01-13T05:09:22.288Z,6.18
2023-01-13T05:12:06.914Z,6.16
2023-01-13T05:14:51.441Z,6.11
2023-01-13T05:17:20.837Z,6.05
2023-01-13T05:19:47.008Z,6.05
2023-01-13T05:22:32.276Z,6.06
2023-01-13T05:25:16.814Z,6.09
2023-01-13T05:27:42.851Z,6.10
2023-01-13T05:30:09.773Z,6.06
2023-01-13T05:32:35.710Z,6.04
2023-01-13T05:35:01.690Z,6.05
2023-01-13T05:37:27.600Z,6.06
2023-01-13T05:40:12.969Z,6.07
2023-01-13T05:42:57.851Z,6.02
2023-01-13T05:45:24.356Z,6.01
2023-01-13T05:47:50.440Z,6.02
2023-01-13T05:50:17.388Z,6.07
2023-01-13T05:52:43.681Z,6.11
2023-01-13T05:55:11.765Z,6.15
2023-01-13T05:57:37.734Z,6.17
2023-01-13T06:00:04.573Z,6.20
2023-01-13T06:02:37.787Z,6.23
2023-01-13T06:05:04.046Z,6.26
2023-01-13T06:07:30.078Z,6.30
2023-01-13T06:09:55.998Z,6.32
2023-01-13T06:12:21.975Z,6.32
2023-01-13T06:14:47.955Z,6.35
2023-01-13T06:17:15.380Z,6.39
2023-01-13T06:19:42.183Z,6.42
2023-01-13T06:22:16.547Z,6.44
2023-01-13T06:24:45.227Z,6.45
2023-01-13T06:27:11.953Z,6.50
2023-01-13T06:29:37.925Z,6.52
2023-01-13T06:32:12.411Z,6.53
2023-01-13T06:34:41.188Z,6.55
2023-01-13T06:37:07.170Z,6.54
2023-01-13T06:39:35.115Z,6.52
2023-01-13T06:42:21.059Z,6.50
2023-01-13T06:44:48.146Z,6.39
2023-01-13T06:47:14.119Z,6.19
2023-01-13T06:49:40.135Z,6.09
2023-01-13T06:52:06.146Z,5.98
2023-01-13T06:54:34.579Z,5.92
2023-01-13T06:57:01.513Z,5.89
2023-01-13T06:59:27.919Z,5.86
2023-01-13T07:01:54.095Z,5.81
2023-01-13T07:04:20.286Z,5.79
2023-01-13T07:06:46.364Z,5.75
2023-01-13T07:09:12.359Z,5.72
2023-01-13T07:11:38.397Z,5.69
2023-01-13T07:14:22.681Z,5.68
2023-01-13T07:16:48.755Z,5.68
2023-01-13T07:19:15.515Z,5.75
2023-01-13T07:21:41.540Z,5.80
2023-01-13T07:24:07.551Z,5.87
2023-01-13T07:26:36.012Z,5.92
2023-01-13T07:29:02.027Z,6.00
2023-01-13T07:31:28.066Z,6.04
2023-01-13T07:33:53.972Z,6.07
2023-01-13T07:36:19.966Z,6.06
2023-01-13T07:38:45.965Z,5.98
2023-01-13T07:41:32.130Z,5.92
2023-01-13T07:44:00.199Z,5.93
2023-01-13T07:46:26.353Z,5.95
2023-01-13T07:48:52.263Z,5.99
2023-01-13T07:51:18.194Z,6.02
2023-01-13T07:53:44.176Z,6.08
2023-01-13T07:56:10.241Z,6.15
2023-01-13T07:58:37.220Z,6.23
2023-01-13T08:01:11.573Z,6.30
2023-01-13T08:03:38.712Z,6.35
2023-01-13T08:06:06.041Z,6.32
2023-01-13T08:08:32.737Z,6.29
2023-01-13T08:11:04.249Z,6.26
2023-01-13T08:13:30.843Z,6.26
2023-01-13T08:16:05.086Z,6.28
2023-01-13T08:18:32.105Z,6.32
2023-01-13T08:21:02.665Z,6.28
2023-01-13T08:23:28.775Z,6.17
2023-01-13T08:25:59.573Z,6.07
2023-01-13T08:28:25.508Z,6.00
2023-01-13T08:30:55.962Z,5.97
2023-01-13T08:33:21.954Z,5.95
2023-01-13T08:35:48.451Z,5.96
2023-01-13T08:38:14.457Z,5.99
2023-01-13T08:40:40.417Z,6.05
2023-01-13T08:43:06.391Z,6.09
2023-01-13T08:45:32.319Z,6.13
2023-01-13T08:47:58.505Z,6.17
2023-01-13T08:50:24.632Z,6.17
2023-01-13T08:52:50.670Z,6.18
2023-01-13T08:55:16.779Z,6.23
2023-01-13T08:57:42.843Z,6.34
2023-01-13T09:00:09.470Z,6.45
2023-01-13T09:02:38.449Z,6.53
2023-01-13T09:05:11.023Z,6.52
2023-01-13T09:07:38.293Z,6.54
2023-01-13T09:10:07.092Z,6.64
2023-01-13T09:12:51.844Z,6.73
2023-01-13T09:15:18.392Z,6.81
2023-01-13T09:17:45.730Z,6.87
2023-01-13T09:20:12.347Z,6.96
2023-01-13T09:22:43.763Z,7.05
2023-01-13T09:25:09.970Z,7.21
2023-01-13T09:27:35.957Z,7.34
2023-01-13T09:30:01.863Z,7.44
2023-01-13T09:32:27.799Z,7.52
2023-01-13T09:34:59.679Z,7.60
2023-01-13T09:37:28.831Z,7.63
2023-01-13T09:39:56.234Z,7.61
2023-01-13T09:43:00.139Z,7.58
2023-01-13T09:45:42.556Z,7.56
2023-01-13T09:48:52.344Z,7.53
2023-01-13T09:51:35.946Z,7.50
2023-01-13T09:54:11.727Z,7.50
2023-01-13T09:56:37.773Z,7.47
2023-01-13T09:59:08.673Z,7.47
2023-01-13T10:01:40.445Z,7.45
2023-01-13T10:04:11.468Z,7.43
2023-01-13T10:06:41.895Z,7.43
2023-01-13T10:09:27.697Z,7.41
2023-01-13T10:12:17.493Z,7.47
2023-01-13T10:15:01.373Z,7.53
2023-01-13T10:17:44.124Z,7.57
2023-01-13T10:20:19.306Z,7.62
2023-01-13T10:22:55.903Z,7.66
2023-01-13T10:25:46.754Z,7.70
2023-01-13T10:28:19.428Z,7.77
2023-01-13T10:30:46.969Z,7.86
2023-01-13T10:33:22.747Z,7.92
2023-01-13T10:35:59.475Z,7.98
2023-01-13T10:38:27.131Z,8.07
2023-01-13T10:40:56.481Z,8.13
2023-01-13T10:43:23.552Z,8.17
2023-01-13T10:46:05.216Z,8.15
2023-01-13T10:48:34.483Z,8.16
2023-01-13T10:51:10.869Z,8.14
2023-01-13T10:54:13.472Z,8.15
2023-01-13T10:56:43.108Z,8.17
2023-01-13T10:59:17.855Z,8.17
2023-01-13T11:02:13.048Z,8.17
2023-01-13T11:04:54.851Z,8.17
2023-01-13T11:07:31.036Z,8.17
2023-01-13T11:10:21.603Z,8.22
2023-01-13T11:13:17.529Z,8.28
2023-01-13T11:15:53.163Z,8.29
2023-01-13T11:18:27.885Z,8.27
2023-01-13T11:20:55.836Z,8.26
2023-01-13T11:23:30.607Z,8.30
2023-01-13T11:26:04.233Z,8.37
2023-01-13T11:28:50.369Z,8.43
2023-01-13T11:31:27.002Z,8.46
2023-01-13T11:33:55.888Z,8.48
2023-01-13T11:36:48.734Z,8.47
2023-01-13T11:39:20.662Z,8.46
2023-01-13T11:42:13.158Z,8.46
2023-01-13T11:45:10.479Z,8.43
2023-01-13T11:47:37.633Z,8.41
2023-01-13T11:50:34.768Z,8.40
2023-01-13T11:53:06.255Z,8.37
2023-01-13T11:55:41.290Z,8.38
2023-01-13T11:58:25.475Z,8.38
2023-01-13T12:01:23.381Z,8.38
2023-01-13T12:04:46.595Z,8.44
2023-01-13T12:07:34.011Z,8.55
2023-01-13T12:10:23.452Z,8.62
2023-01-13T12:12:55.301Z,8.66
2023-01-13T12:15:21.764Z,8.70
2023-01-13T12:18:10.087Z,8.71
2023-01-13T12:21:00.783Z,8.71
2023-01-13T12:23:38.137Z,8.70
2023-01-13T12:26:14.719Z,8.68
2023-01-13T12:28:44.801Z,8.66
2023-01-13T12:31:12.989Z,8.62
2023-01-13T12:34:17.131Z,8.60
2023-01-13T12:36:58.132Z,8.58
2023-01-13T12:39:36.325Z,8.56
2023-01-13T12:42:49.387Z,8.58
2023-01-13T12:45:17.309Z,8.60
2023-01-13T12:47:46.407Z,8.62
2023-01-13T12:50:40.099Z,8.65
2023-01-13T12:53:32.100Z,8.66
2023-01-13T12:56:20.006Z,8.69
2023-01-13T12:58:46.066Z,8.71
2023-01-13T13:01:14.402Z,8.76
2023-01-13T13:04:06.473Z,8.86
2023-01-13T13:06:38.562Z,8.97
2023-01-13T13:09:23.131Z,9.06
2023-01-13T13:11:58.056Z,9.15
2023-01-13T13:14:39.395Z,9.21
2023-01-13T13:17:33.308Z,9.26
2023-01-13T13:20:00.686Z,9.30
2023-01-13T13:22:26.632Z,9.33
2023-01-13T13:24:55.646Z,9.35
2023-01-13T13:27:40.316Z,9.34
2023-01-13T13:30:48.169Z,9.34
2023-01-13T13:33:35.289Z,9.29
2023-01-13T13:36:25.922Z,9.27
2023-01-13T13:39:44.654Z,9.27
2023-01-13T13:42:38.623Z,9.31
2023-01-13T13:45:40.012Z,9.33
2023-01-13T13:48:23.529Z,9.37
2023-01-13T13:51:01.240Z,9.40
2023-01-13T13:53:39.737Z,9.45
2023-01-13T13:56:16.555Z,9.50
2023-01-13T13:58:43.100Z,9.56
2023-01-13T14:01:26.924Z,9.65
2023-01-13T14:04:06.201Z,9.75
2023-01-13T14:06:32.439Z,9.87
2023-01-13T14:08:58.334Z,10.00
2023-01-13T14:11:32.851Z,10.09
2023-01-13T14:14:12.388Z,10.14
2023-01-13T14:16:40.171Z,10.09
2023-01-13T14:19:27.477Z,10.05
2023-01-13T14:21:53.502Z,10.02
2023-01-13T14:24:21.941Z,9.98
2023-01-13T14:26:52.614Z,9.92
2023-01-13T14:29:24.220Z,9.88
2023-01-13T14:31:52.856Z,9.89
2023-01-13T14:34:31.234Z,10.00
2023-01-13T14:36:59.892Z,10.43
2023-01-13T14:39:36.160Z,10.73
2023-01-13T14:42:03.327Z,10.89
2023-01-13T14:44:34.180Z,11.50
2023-01-13T14:47:03.760Z,11.59
2023-01-13T14:50:05.392Z,11.54
2023-01-13T14:52:50.012Z,12.11
2023-01-13T14:55:21.919Z,12.74
2023-01-13T14:57:48.840Z,13.14
2023-01-13T15:00:14.762Z,13.98
2023-01-13T15:02:53.825Z,14.39
2023-01-13T15:05:32.175Z,14.08
2023-01-13T15:08:10.671Z,13.54
2023-01-13T15:10:47.582Z,13.16
2023-01-13T15:14:05.844Z,12.87
2023-01-13T15:16:34.715Z,12.48
2023-01-13T15:19:01.357Z,12.17
2023-01-13T15:21:27.451Z,11.92
2023-01-13T15:23:53.481Z,11.65
2023-01-13T15:26:26.368Z,11.33
2023-01-13T15:28:55.164Z,11.06
2023-01-13T15:31:21.243Z,10.92
2023-01-13T15:33:48.292Z,10.79
2023-01-13T15:36:31.666Z,10.68
2023-01-13T15:38:59.445Z,10.49
2023-01-13T15:41:45.000Z,10.23
2023-01-13T15:44:36.008Z,10.04
2023-01-13T15:47:06.119Z,9.83
2023-01-13T15:49:36.872Z,9.63
2023-01-13T15:52:21.196Z,9.48
2023-01-13T15:54:49.099Z,9.37
2023-01-13T15:57:27.650Z,9.27
2023-01-13T16:00:00.439Z,9.16
2023-01-13T16:02:26.893Z,9.08
2023-01-13T16:04:55.747Z,9.00
2023-01-13T16:07:23.602Z,8.94
2023-01-13T16:09:49.697Z,8.90
2023-01-13T16:12:16.149Z,8.86
2023-01-13T16:14:42.149Z,8.80
2023-01-13T16:17:30.324Z,8.77
2023-01-13T16:19:56.456Z,8.69
2023-01-13T16:22:22.450Z,8.62
2023-01-13T16:24:48.454Z,8.54
2023-01-13T16:27:21.144Z,8.48
2023-01-13T16:29:48.785Z,8.40
2023-01-13T16:32:20.330Z,8.33
2023-01-13T16:34:46.237Z,8.25
2023-01-13T16:37:19.832Z,8.18
2023-01-13T16:39:46.562Z,8.12
2023-01-13T16:42:12.502Z,8.09
2023-01-13T16:44:38.590Z,8.07
2023-01-13T16:47:04.627Z,8.06
2023-01-13T16:49:30.629Z,8.06
2023-01-13T16:51:56.608Z,8.05
2023-01-13T16:54:22.601Z,8.02
2023-01-13T16:56:48.639Z,7.97
2023-01-13T16:59:14.616Z,7.93
2023-01-13T17:01:44.164Z,7.88
2023-01-13T17:04:22.889Z,7.84
2023-01-13T17:06:55.041Z,7.77
2023-01-13T17:09:23.832Z,7.72
2023-01-13T17:11:50.724Z,7.71
2023-01-13T17:14:20.414Z,7.71
2023-01-13T17:16:47.048Z,7.70
2023-01-13T17:19:13.159Z,7.66
2023-01-13T17:21:39.166Z,7.60
2023-01-13T17:24:07.190Z,7.54
2023-01-13T17:26:46.494Z,7.51
2023-01-13T17:29:15.279Z,7.49
2023-01-13T17:31:41.845Z,7.46
2023-01-13T17:34:10.602Z,7.45
2023-01-13T17:36:36.523Z,7.46
2023-01-13T17:39:04.355Z,7.47
2023-01-13T17:41:30.567Z,7.50
2023-01-13T17:43:56.604Z,7.54
2023-01-13T17:46:22.726Z,7.56
2023-01-13T17:48:50.517Z,7.57
2023-01-13T17:51:18.916Z,7.58
2023-01-13T17:53:45.157Z,7.60
2023-01-13T17:56:13.067Z,7.61
2023-01-13T17:58:46.013Z,7.62
2023-01-13T18:01:21.913Z,7.61
2023-01-13T18:03:48.601Z,7.60
2023-01-13T18:06:23.532Z,7.58
2023-01-13T18:08:50.099Z,7.56
2023-01-13T18:11:18.334Z,7.57
2023-01-13T18:13:49.040Z,7.58
2023-01-13T18:16:17.959Z,7.61
2023-01-13T18:18:46.066Z,7.60
2023-01-13T18:21:41.465Z,7.61
2023-01-13T18:24:34.704Z,7.63
2023-01-13T18:27:23.452Z,7.61
2023-01-13T18:29:52.897Z,7.56
2023-01-13T18:32:19.969Z,7.56
2023-01-13T18:35:05.004Z,7.54
2023-01-13T18:37:41.629Z,7.56
2023-01-13T18:40:11.281Z,7.61
2023-01-13T18:42:55.285Z,7.64
2023-01-13T18:45:30.369Z,7.64
2023-01-13T18:48:00.018Z,7.62
2023-01-13T18:50:27.480Z,7.61
2023-01-13T18:53:00.482Z,7.59
2023-01-13T18:55:27.985Z,7.57
2023-01-13T18:57:55.282Z,7.55
2023-01-13T19:00:22.339Z,7.53
2023-01-13T19:05:33.738Z,7.52
2023-01-13T19:08:00.293Z,7.52
2023-01-13T19:10:31.042Z,7.52
2023-01-13T19:12:57.142Z,7.49
2023-01-13T19:15:23.078Z,7.45
2023-01-13T19:17:49.575Z,7.43
2023-01-13T19:20:17.248Z,7.40
2023-01-13T19:22:45.589Z,7.36
2023-01-13T19:25:12.426Z,7.31
2023-01-13T19:27:39.350Z,7.30
2023-01-13T19:30:06.034Z,7.30
2023-01-13T19:32:32.477Z,7.30
2023-01-13T19:34:58.931Z,7.29
2023-01-13T19:37:29.479Z,7.26
2023-01-13T19:39:57.474Z,7.21
2023-01-13T19:42:42.110Z,7.17
2023-01-13T19:45:33.189Z,7.12
2023-01-13T19:48:04.611Z,7.07
2023-01-13T19:50:31.233Z,7.04
2023-01-13T19:52:57.354Z,7.05
2023-01-13T19:55:23.391Z,7.08
2023-01-13T19:57:49.362Z,7.12
2023-01-13T20:00:19.821Z,7.12
2023-01-13T20:02:51.266Z,7.12
2023-01-13T20:05:24.991Z,7.11
2023-01-13T20:07:51.314Z,7.11
2023-01-13T20:10:19.555Z,7.11
2023-01-13T20:12:45.506Z,7.09
2023-01-13T20:15:11.558Z,7.07
2023-01-13T20:17:37.681Z,7.04
2023-01-13T20:20:04.595Z,7.05
2023-01-13T20:22:30.599Z,7.06
2023-01-13T20:24:56.610Z,7.06
2023-01-13T20:27:24.534Z,7.04
2023-01-13T20:29:50.871Z,7.03
2023-01-13T20:32:16.826Z,7.02
2023-01-13T20:34:42.763Z,6.99
2023-01-13T20:37:08.773Z,6.96
2023-01-13T20:39:35.678Z,6.91
2023-01-13T20:42:20.300Z,6.87
2023-01-13T20:44:47.447Z,6.86
2023-01-13T20:47:14.628Z,6.88
2023-01-13T20:49:40.882Z,6.90
2023-01-13T20:52:10.071Z,6.92
2023-01-13T20:54:38.819Z,6.93
2023-01-13T20:57:08.844Z,6.93
2023-01-13T20:59:38.515Z,6.91
2023-01-13T21:02:06.813Z,6.91
2023-01-13T21:04:32.935Z,6.88
2023-01-13T21:06:58.960Z,6.86
2023-01-13T21:09:26.583Z,6.82
2023-01-13T21:12:11.581Z,6.76
2023-01-13T21:14:56.077Z,6.69
2023-01-13T21:17:41.079Z,6.62
2023-01-13T21:20:09.843Z,6.56
2023-01-13T21:22:35.964Z,6.49
2023-01-13T21:25:03.303Z,6.42
2023-01-13T21:27:29.665Z,6.35
2023-01-13T21:29:55.741Z,6.28
2023-01-13T21:32:21.785Z,6.20
2023-01-13T21:34:47.845Z,6.16
2023-01-13T21:37:15.406Z,6.11
2023-01-13T21:39:42.791Z,6.07
2023-01-13T21:42:32.002Z,6.03
2023-01-13T21:45:17.556Z,6.00
2023-01-13T21:47:49.772Z,6.01
2023-01-13T21:50:16.591Z,6.05
2023-01-13T21:52:42.731Z,6.08
2023-01-13T21:55:24.872Z,6.11
2023-01-13T21:58:17.394Z,6.16
2023-01-13T22:00:44.164Z,6.21
2023-01-13T22:03:13.097Z,6.24
2023-01-13T22:05:39.619Z,6.22
2023-01-13T22:08:06.557Z,6.21
2023-01-13T22:10:34.174Z,6.22
2023-01-13T22:13:22.922Z,6.23
2023-01-13T22:16:04.862Z,6.23
2023-01-13T22:18:30.886Z,6.20
2023-01-13T22:21:00.510Z,6.11
2023-01-13T22:23:26.437Z,6.04
2023-01-13T22:26:00.486Z,6.00
2023-01-13T22:28:33.419Z,6.00
2023-01-13T22:31:07.247Z,5.99
2023-01-13T22:33:33.192Z,5.97
2023-01-13T22:35:59.165Z,5.94
2023-01-13T22:38:25.225Z,5.89
2023-01-13T22:40:59.761Z,5.83
2023-01-13T22:43:29.707Z,5.79
2023-01-13T22:46:00.220Z,5.77
2023-01-13T22:48:27.192Z,5.71
2023-01-13T22:50:53.428Z,5.62
2023-01-13T22:53:20.795Z,5.53
2023-01-13T22:55:54.902Z,5.45
2023-01-13T22:58:21.710Z,5.36
2023-01-13T23:00:48.181Z,5.26
2023-01-13T23:03:14.661Z,5.23
2023-01-13T23:05:41.110Z,5.25
2023-01-13T23:08:08.938Z,5.29
2023-01-13T23:10:34.966Z,5.36
2023-01-13T23:13:00.933Z,5.42
2023-01-13T23:15:26.995Z,5.48
2023-01-13T23:17:52.938Z,5.53
2023-01-13T23:20:18.971Z,5.58
2023-01-13T23:22:45.016Z,5.59
2023-01-13T23:25:11.086Z,5.57
2023-01-13T23:27:37.073Z,5.56
2023-01-13T23:30:05.190Z,5.56
2023-01-13T23:32:31.407Z,5.58
2023-01-13T23:34:57.370Z,5.59
2023-01-13T23:37:23.309Z,5.61
2023-01-13T23:39:49.299Z,5.62
2023-01-13T23:42:15.299Z,5.62
2023-01-13T23:44:41.217Z,5.63
2023-01-13T23:47:09.061Z,5.64
2023-01-13T23:49:35.114Z,5.64
2023-01-13T23:52:01.388Z,5.64
2023-01-13T23:54:27.391Z,5.62
2023-01-13T23:56:53.536Z,5.64
2023-01-13T23:59:19.768Z,5.67
